createdAt,value
2023-02-17T00:00:26.055Z,21.61
2023-02-17T00:02:27.438Z,21.58
2023-02-17T00:04:29.143Z,21.57
2023-02-17T00:06:30.482Z,21.53
2023-02-17T00:08:31.789Z,21.50
2023-02-17T00:10:33.135Z,21.48
2023-02-17T00:12:34.471Z,21.48
2023-02-17T00:14:35.779Z,21.48
2023-02-17T00:16:37.100Z,21.48
2023-02-17T00:18:38.398Z,21.44
2023-02-17T00:20:39.705Z,21.43
2023-02-17T00:22:41.068Z,21.44
2023-02-17T00:24:42.567Z,21.42
2023-02-17T00:26:43.891Z,21.39
2023-02-17T00:28:45.235Z,21.40
2023-02-17T00:30:46.541Z,21.29
2023-02-17T00:32:47.888Z,21.17
2023-02-17T00:34:49.226Z,21.23
2023-02-17T00:36:50.521Z,21.31
2023-02-17T00:38:51.851Z,21.35
2023-02-17T00:40:53.144Z,21.39
2023-02-17T00:42:54.954Z,21.46
2023-02-17T00:44:56.350Z,21.50
2023-02-17T00:46:57.646Z,21.55
2023-02-17T00:48:58.951Z,21.61
2023-02-17T00:51:00.250Z,21.64
2023-02-17T00:53:02.211Z,21.70
2023-02-17T00:55:03.608Z,21.78
2023-02-17T00:57:04.984Z,21.85
2023-02-17T00:59:06.585Z,21.86
2023-02-17T01:01:07.894Z,21.84
2023-02-17T01:03:09.201Z,21.84
2023-02-17T01:05:10.543Z,21.84
2023-02-17T01:07:11.870Z,21.81
2023-02-17T01:09:13.205Z,21.81
2023-02-17T01:11:14.504Z,21.79
2023-02-17T01:13:15.821Z,21.79
2023-02-17T01:15:17.128Z,21.76
2023-02-17T01:17:18.421Z,21.74
2023-02-17T01:19:19.724Z,21.71
2023-02-17T01:21:21.070Z,21.67
2023-02-17T01:23:22.363Z,21.64
2023-02-17T01:25:23.660Z,21.63
2023-02-17T01:27:25.041Z,21.59
2023-02-17T01:29:26.350Z,21.54
2023-02-17T01:31:27.789Z,21.52
2023-02-17T01:33:29.197Z,21.49
2023-02-17T01:35:30.496Z,21.47
2023-02-17T01:37:31.801Z,21.46
2023-02-17T01:39:33.095Z,21.42
2023-02-17T01:41:34.505Z,21.42
2023-02-17T01:43:35.802Z,21.41
2023-02-17T01:45:37.130Z,21.39
2023-02-17T01:47:38.442Z,21.38
2023-02-17T01:49:39.746Z,21.37
2023-02-17T01:51:41.038Z,21.36
2023-02-17T01:53:42.368Z,21.36
2023-02-17T01:55:43.667Z,21.40
2023-02-17T01:57:44.976Z,21.42
2023-02-17T01:59:46.315Z,21.42
2023-02-17T02:01:47.897Z,21.42
2023-02-17T02:03:49.288Z,21.42
2023-02-17T02:05:50.596Z,21.43
2023-02-17T02:07:51.898Z,21.44
2023-02-17T02:09:53.254Z,21.45
2023-02-17T02:11:54.559Z,21.50
2023-02-17T02:13:55.892Z,21.54
2023-02-17T02:15:57.200Z,21.58
2023-02-17T02:17:58.500Z,21.63
2023-02-17T02:19:59.793Z,21.66
2023-02-17T02:22:01.090Z,21.69
2023-02-17T02:24:02.386Z,21.71
2023-02-17T02:26:03.924Z,21.73
2023-02-17T02:28:05.373Z,21.74
2023-02-17T02:30:06.792Z,21.75
2023-02-17T02:32:08.110Z,21.74
2023-02-17T02:34:09.435Z,21.75
2023-02-17T02:36:10.777Z,21.75
2023-02-17T02:38:12.107Z,21.69
2023-02-17T02:40:13.399Z,21.69
2023-02-17T02:42:14.715Z,21.69
2023-02-17T02:44:16.021Z,21.66
2023-02-17T02:46:17.371Z,21.64
2023-02-17T02:48:18.665Z,21.60
2023-02-17T02:50:20.035Z,21.58
2023-02-17T02:52:21.381Z,21.54
2023-02-17T02:54:22.713Z,21.54
2023-02-17T02:56:24.074Z,21.52
2023-02-17T02:58:25.400Z,21.49
2023-02-17T03:00:26.703Z,21.51
2023-02-17T03:02:27.995Z,21.51
2023-02-17T03:04:36.490Z,21.50
2023-02-17T03:06:37.908Z,21.47
2023-02-17T03:08:39.258Z,21.46
2023-02-17T03:10:42.601Z,21.45
2023-02-17T03:12:43.899Z,21.44
2023-02-17T03:14:45.193Z,21.43
2023-02-17T03:16:46.684Z,21.42
2023-02-17T03:18:48.024Z,21.43
2023-02-17T03:20:49.935Z,21.44
2023-02-17T03:22:51.328Z,21.44
2023-02-17T03:24:52.659Z,21.45
2023-02-17T03:26:53.997Z,21.46
2023-02-17T03:28:55.301Z,21.49
2023-02-17T03:30:57.835Z,21.51
2023-02-17T03:32:59.185Z,21.54
2023-02-17T03:35:00.520Z,21.60
2023-02-17T03:37:02.221Z,21.66
2023-02-17T03:39:03.544Z,21.74
2023-02-17T03:41:04.873Z,21.73
2023-02-17T03:43:06.217Z,21.69
2023-02-17T03:45:07.504Z,21.67
2023-02-17T03:47:08.874Z,21.64
2023-02-17T03:49:12.184Z,21.55
2023-02-17T03:51:14.329Z,21.48
2023-02-17T03:53:15.816Z,21.47
2023-02-17T03:55:17.288Z,21.44
2023-02-17T03:57:18.738Z,21.41
2023-02-17T03:59:20.082Z,21.39
2023-02-17T04:01:21.417Z,21.40
2023-02-17T04:03:22.739Z,21.37
2023-02-17T04:05:24.129Z,21.38
2023-02-17T04:07:25.463Z,21.38
2023-02-17T04:09:26.816Z,21.38
2023-02-17T04:11:28.134Z,21.39
2023-02-17T04:13:29.528Z,21.38
2023-02-17T04:15:30.883Z,21.38
2023-02-17T04:17:32.315Z,21.39
2023-02-17T04:19:33.654Z,21.38
2023-02-17T04:21:34.944Z,21.37
2023-02-17T04:23:36.238Z,21.38
2023-02-17T04:25:37.602Z,21.39
2023-02-17T04:27:38.931Z,21.38
2023-02-17T04:29:40.288Z,21.43
2023-02-17T04:31:41.713Z,21.46
2023-02-17T04:33:43.104Z,21.47
2023-02-17T04:35:44.431Z,21.53
2023-02-17T04:37:45.760Z,21.54
2023-02-17T04:39:47.063Z,21.58
2023-02-17T04:41:48.444Z,21.60
2023-02-17T04:43:49.743Z,21.62
2023-02-17T04:45:51.148Z,21.60
2023-02-17T04:47:52.460Z,21.60
2023-02-17T04:49:53.760Z,21.63
2023-02-17T04:51:55.181Z,21.65
2023-02-17T04:53:56.583Z,21.67
2023-02-17T04:55:57.888Z,21.69
2023-02-17T04:57:59.215Z,21.67
2023-02-17T05:00:00.516Z,21.66
2023-02-17T05:02:01.831Z,21.65
2023-02-17T05:04:03.134Z,21.60
2023-02-17T05:06:04.714Z,21.57
2023-02-17T05:08:06.211Z,21.55
2023-02-17T05:10:07.545Z,21.53
2023-02-17T05:12:08.880Z,21.49
2023-02-17T05:14:10.167Z,21.45
2023-02-17T05:16:11.529Z,21.34
2023-02-17T05:18:12.840Z,21.18
2023-02-17T05:20:14.173Z,21.19
2023-02-17T05:22:15.505Z,21.20
2023-02-17T05:24:16.829Z,21.21
2023-02-17T05:26:18.197Z,21.26
2023-02-17T05:28:19.563Z,21.24
2023-02-17T05:30:20.927Z,21.27
2023-02-17T05:32:22.235Z,21.22
2023-02-17T05:34:23.608Z,21.28
2023-02-17T05:36:24.930Z,21.30
2023-02-17T05:38:26.520Z,21.32
2023-02-17T05:40:27.818Z,21.30
2023-02-17T05:42:29.144Z,21.39
2023-02-17T05:44:30.505Z,21.28
2023-02-17T05:46:31.833Z,21.14
2023-02-17T05:48:33.167Z,21.04
2023-02-17T05:50:34.463Z,21.00
2023-02-17T05:52:35.803Z,21.12
2023-02-17T05:54:37.133Z,21.34
2023-02-17T05:56:38.440Z,21.32
2023-02-17T05:58:39.737Z,21.32
2023-02-17T06:00:41.072Z,21.36
2023-02-17T06:02:42.411Z,21.35
2023-02-17T06:04:43.802Z,20.49
2023-02-17T06:06:45.134Z,21.43
2023-02-17T06:08:46.433Z,21.44
2023-02-17T06:10:47.727Z,21.42
2023-02-17T06:12:49.061Z,21.43
2023-02-17T06:14:50.394Z,21.42
2023-02-17T06:16:51.776Z,21.43
2023-02-17T06:18:53.116Z,21.40
2023-02-17T06:20:54.444Z,21.37
2023-02-17T06:22:55.747Z,21.34
2023-02-17T06:24:57.083Z,21.34
2023-02-17T06:26:58.399Z,21.31
2023-02-17T06:28:59.706Z,21.27
2023-02-17T06:31:01.053Z,21.11
2023-02-17T06:33:02.384Z,20.94
2023-02-17T06:35:03.703Z,21.04
2023-02-17T06:37:05.027Z,21.06
2023-02-17T06:39:06.343Z,21.06
2023-02-17T06:41:07.692Z,21.05
2023-02-17T06:43:08.994Z,21.02
2023-02-17T06:45:10.328Z,21.02
2023-02-17T06:47:11.627Z,21.01
2023-02-17T06:49:13.066Z,20.97
2023-02-17T06:51:14.377Z,20.95
2023-02-17T06:53:15.671Z,20.95
2023-02-17T06:55:16.964Z,20.93
2023-02-17T06:57:18.302Z,20.93
2023-02-17T06:59:19.591Z,20.90
2023-02-17T07:01:20.933Z,20.90
2023-02-17T07:03:22.274Z,20.90
2023-02-17T07:05:23.579Z,20.92
2023-02-17T07:07:24.954Z,20.92
2023-02-17T07:09:26.279Z,20.93
2023-02-17T07:11:31.314Z,20.98
2023-02-17T07:13:32.664Z,21.02
2023-02-17T07:15:34.039Z,21.04
2023-02-17T07:17:35.375Z,21.07
2023-02-17T07:19:36.670Z,21.11
2023-02-17T07:21:37.973Z,21.16
2023-02-17T07:23:39.719Z,21.19
2023-02-17T07:25:41.028Z,21.22
2023-02-17T07:27:42.330Z,21.25
2023-02-17T07:29:43.701Z,21.25
2023-02-17T07:31:45.053Z,21.27
2023-02-17T07:33:48.120Z,21.28
2023-02-17T07:35:52.815Z,21.27
2023-02-17T07:37:54.171Z,21.28
2023-02-17T07:39:57.110Z,21.25
2023-02-17T07:42:00.964Z,21.26
2023-02-17T07:44:02.302Z,21.22
2023-02-17T07:46:03.763Z,21.21
2023-02-17T07:48:05.274Z,21.19
2023-02-17T07:50:06.577Z,21.17
2023-02-17T07:52:07.932Z,21.14
2023-02-17T07:54:09.253Z,21.12
2023-02-17T07:56:10.577Z,21.10
2023-02-17T07:58:11.910Z,21.09
2023-02-17T08:00:13.244Z,21.03
2023-02-17T08:02:14.663Z,21.01
2023-02-17T08:04:15.991Z,20.98
2023-02-17T08:06:17.316Z,20.94
2023-02-17T08:08:37.616Z,20.92
2023-02-17T08:10:57.563Z,20.91
2023-02-17T08:13:17.431Z,20.87
2023-02-17T08:15:18.768Z,20.86
2023-02-17T08:17:20.106Z,20.85
2023-02-17T08:19:21.422Z,20.84
2023-02-17T08:21:22.794Z,20.84
2023-02-17T08:23:24.175Z,20.83
2023-02-17T08:25:25.571Z,20.83
2023-02-17T08:27:26.942Z,20.83
2023-02-17T08:29:28.353Z,20.83
2023-02-17T08:31:29.717Z,20.85
2023-02-17T08:33:31.080Z,20.88
2023-02-17T08:35:32.525Z,20.92
2023-02-17T08:37:33.942Z,20.96
2023-02-17T08:39:35.303Z,21.00
2023-02-17T08:41:36.658Z,21.05
2023-02-17T08:43:37.960Z,21.11
2023-02-17T08:45:39.322Z,21.13
2023-02-17T08:47:40.743Z,21.19
2023-02-17T08:49:42.064Z,21.20
2023-02-17T08:51:43.435Z,21.23
2023-02-17T08:53:45.652Z,21.27
2023-02-17T08:55:49.633Z,21.32
2023-02-17T08:57:51.226Z,21.33
2023-02-17T08:59:52.635Z,21.33
2023-02-17T09:01:54.456Z,21.32
2023-02-17T09:03:56.353Z,21.28
2023-02-17T09:05:57.776Z,21.27
2023-02-17T09:07:59.137Z,21.24
2023-02-17T09:10:00.518Z,21.26
2023-02-17T09:12:02.369Z,21.21
2023-02-17T09:14:03.717Z,21.16
2023-02-17T09:16:05.754Z,21.11
2023-02-17T09:18:07.388Z,21.08
2023-02-17T09:20:19.501Z,21.03
2023-02-17T09:22:32.000Z,21.00
2023-02-17T09:24:35.052Z,20.95
2023-02-17T09:26:36.400Z,20.89
2023-02-17T09:28:38.156Z,20.87
2023-02-17T09:30:39.669Z,20.84
2023-02-17T09:32:41.065Z,20.82
2023-02-17T09:34:49.693Z,20.80
2023-02-17T09:36:51.031Z,20.76
2023-02-17T09:38:55.374Z,20.74
2023-02-17T09:40:56.764Z,20.72
2023-02-17T09:42:58.131Z,20.71
2023-02-17T09:45:00.259Z,20.69
2023-02-17T09:47:02.994Z,20.70
2023-02-17T09:49:04.574Z,20.71
2023-02-17T09:51:06.073Z,20.71
2023-02-17T09:53:07.631Z,20.71
2023-02-17T09:55:08.938Z,20.74
2023-02-17T09:57:10.279Z,20.75
2023-02-17T09:59:11.740Z,20.79
2023-02-17T10:01:13.580Z,20.85
2023-02-17T10:03:17.739Z,20.88
2023-02-17T10:05:19.703Z,20.92
2023-02-17T10:07:21.337Z,20.96
2023-02-17T10:09:24.455Z,20.98
2023-02-17T10:11:25.833Z,21.02
2023-02-17T10:16:04.859Z,21.08
2023-02-17T10:18:06.385Z,21.12
2023-02-17T10:20:07.725Z,21.13
2023-02-17T10:22:09.035Z,21.14
2023-02-17T10:24:10.355Z,21.13
2023-02-17T10:26:11.746Z,21.14
2023-02-17T10:28:13.092Z,21.16
2023-02-17T10:30:14.673Z,21.19
2023-02-17T10:32:19.460Z,21.17
2023-02-17T10:34:21.391Z,21.18
2023-02-17T10:36:22.730Z,21.16
2023-02-17T10:38:24.102Z,21.13
2023-02-17T10:40:25.511Z,21.16
2023-02-17T10:42:26.837Z,21.13
2023-02-17T10:44:28.202Z,21.13
2023-02-17T10:46:29.600Z,21.11
2023-02-17T10:48:30.918Z,21.09
2023-02-17T10:50:32.411Z,21.05
2023-02-17T10:52:33.707Z,21.00
2023-02-17T10:54:35.033Z,20.98
2023-02-17T10:56:36.332Z,20.96
2023-02-17T10:58:37.699Z,20.93
2023-02-17T11:00:39.013Z,20.89
2023-02-17T11:02:40.328Z,20.87
2023-02-17T11:04:41.982Z,20.85
2023-02-17T11:06:44.373Z,20.83
2023-02-17T11:08:45.715Z,20.83
2023-02-17T11:10:47.032Z,20.83
2023-02-17T11:12:49.836Z,20.80
2023-02-17T11:14:51.137Z,20.79
2023-02-17T11:16:52.503Z,20.76
2023-02-17T11:18:53.875Z,20.73
2023-02-17T11:20:55.207Z,20.73
2023-02-17T11:22:56.701Z,20.75
2023-02-17T11:24:58.035Z,20.75
2023-02-17T11:26:59.388Z,20.74
2023-02-17T11:29:00.684Z,20.74
2023-02-17T11:31:07.281Z,20.75
2023-02-17T11:33:08.772Z,20.77
2023-02-17T11:35:10.304Z,20.78
2023-02-17T11:37:11.604Z,20.80
2023-02-17T11:39:12.913Z,20.84
2023-02-17T11:41:14.260Z,20.83
2023-02-17T11:43:15.571Z,20.85
2023-02-17T11:45:16.867Z,20.88
2023-02-17T11:47:18.154Z,20.93
2023-02-17T11:49:19.494Z,20.95
2023-02-17T11:51:23.601Z,20.98
2023-02-17T11:53:25.049Z,21.00
2023-02-17T11:55:26.380Z,21.00
2023-02-17T11:57:27.711Z,21.00
2023-02-17T11:59:29.080Z,21.00
2023-02-17T12:01:30.384Z,21.00
2023-02-17T12:03:31.813Z,21.03
2023-02-17T12:05:33.136Z,21.03
2023-02-17T12:07:34.441Z,21.02
2023-02-17T12:09:35.808Z,21.03
2023-02-17T12:11:37.618Z,21.03
2023-02-17T12:13:38.928Z,21.05
2023-02-17T12:15:40.253Z,21.02
2023-02-17T12:17:41.623Z,21.03
2023-02-17T12:19:42.930Z,21.02
2023-02-17T12:21:44.344Z,20.98
2023-02-17T12:23:45.640Z,20.99
2023-02-17T12:25:47.020Z,20.99
2023-02-17T12:27:48.369Z,21.00
2023-02-17T12:29:50.832Z,20.98
2023-02-17T12:31:52.318Z,20.95
2023-02-17T12:33:53.661Z,20.96
2023-02-17T12:35:57.890Z,20.93
2023-02-17T12:37:59.196Z,20.91
2023-02-17T12:40:00.493Z,20.91
2023-02-17T12:42:02.191Z,20.90
2023-02-17T12:44:03.493Z,20.89
2023-02-17T12:46:05.070Z,20.88
2023-02-17T12:48:06.638Z,20.87
2023-02-17T12:50:07.968Z,20.85
2023-02-17T12:52:09.339Z,20.83
2023-02-17T12:54:10.632Z,20.82
2023-02-17T12:56:11.932Z,20.79
2023-02-17T12:58:13.289Z,20.79
2023-02-17T13:00:14.726Z,20.77
2023-02-17T13:02:16.167Z,20.77
2023-02-17T13:04:17.496Z,20.76
2023-02-17T13:06:18.909Z,20.75
2023-02-17T13:08:20.294Z,20.76
2023-02-17T13:10:21.674Z,20.76
2023-02-17T13:12:22.995Z,20.77
2023-02-17T13:14:33.123Z,20.78
2023-02-17T13:16:34.421Z,20.79
2023-02-17T13:18:35.749Z,20.80
2023-02-17T13:20:37.080Z,20.83
2023-02-17T13:22:38.411Z,20.84
2023-02-17T13:24:39.760Z,20.87
2023-02-17T13:26:41.059Z,20.89
2023-02-17T13:28:42.409Z,20.88
2023-02-17T13:30:43.803Z,20.90
2023-02-17T13:32:45.160Z,20.94
2023-02-17T13:34:46.698Z,20.93
2023-02-17T13:36:47.997Z,20.94
2023-02-17T13:38:49.335Z,20.94
2023-02-17T13:40:50.676Z,20.97
2023-02-17T13:42:52.052Z,20.99
2023-02-17T13:44:53.358Z,20.99
2023-02-17T13:46:54.754Z,20.98
2023-02-17T13:48:56.088Z,20.97
2023-02-17T13:50:57.670Z,20.98
2023-02-17T13:52:59.089Z,20.98
2023-02-17T13:55:00.388Z,20.98
2023-02-17T13:57:02.192Z,20.95
2023-02-17T13:59:03.513Z,20.96
2023-02-17T14:01:04.965Z,20.98
2023-02-17T14:03:06.291Z,20.95
2023-02-17T14:05:07.688Z,20.91
2023-02-17T14:07:09.828Z,20.87
2023-02-17T14:09:11.164Z,20.81
2023-02-17T14:11:12.474Z,20.72
2023-02-17T14:13:13.784Z,20.64
2023-02-17T14:15:15.114Z,20.58
2023-02-17T14:17:16.411Z,20.56
2023-02-17T14:19:17.708Z,20.55
2023-02-17T14:21:19.014Z,20.54
2023-02-17T14:23:20.320Z,20.56
2023-02-17T14:25:21.647Z,20.59
2023-02-17T14:27:22.976Z,20.62
2023-02-17T14:29:24.278Z,20.65
2023-02-17T14:31:25.727Z,20.69
2023-02-17T14:33:27.134Z,20.74
2023-02-17T14:35:28.465Z,20.76
2023-02-17T14:37:32.010Z,20.77
2023-02-17T14:39:33.359Z,19.93
2023-02-17T14:41:34.721Z,19.95
2023-02-17T14:43:36.056Z,20.62
2023-02-17T14:45:37.411Z,21.07
2023-02-17T14:47:41.631Z,21.46
2023-02-17T14:49:42.954Z,20.65
2023-02-17T14:51:44.308Z,21.40
2023-02-17T14:53:45.687Z,21.39
2023-02-17T14:55:52.736Z,21.50
2023-02-17T14:57:54.073Z,21.53
2023-02-17T14:59:57.697Z,21.44
2023-02-17T15:01:59.096Z,21.53
2023-02-17T15:04:00.852Z,21.31
2023-02-17T15:06:02.187Z,21.24
2023-02-17T15:08:03.532Z,21.27
2023-02-17T15:10:04.823Z,21.28
2023-02-17T15:12:06.409Z,21.30
2023-02-17T15:14:07.711Z,21.29
2023-02-17T15:16:09.369Z,21.61
2023-02-17T15:18:10.847Z,21.68
2023-02-17T15:20:12.306Z,21.47
2023-02-17T15:22:13.635Z,21.38
2023-02-17T15:24:15.046Z,21.54
2023-02-17T15:26:19.388Z,21.74
2023-02-17T15:28:20.770Z,21.64
2023-02-17T15:30:22.936Z,21.49
2023-02-17T15:32:24.438Z,21.41
2023-02-17T15:34:25.799Z,21.87
2023-02-17T15:36:27.103Z,21.55
2023-02-17T15:38:28.427Z,21.38
2023-02-17T15:40:30.029Z,21.29
2023-02-17T15:42:31.374Z,21.25
2023-02-17T15:44:32.684Z,21.21
2023-02-17T15:46:34.073Z,21.09
2023-02-17T15:48:35.393Z,21.11
2023-02-17T15:50:39.858Z,21.09
2023-02-17T15:52:41.183Z,21.07
2023-02-17T15:54:42.745Z,21.04
2023-02-17T15:56:44.819Z,21.05
2023-02-17T15:58:46.144Z,21.04
2023-02-17T16:00:48.637Z,21.04
2023-02-17T16:02:50.188Z,21.03
2023-02-17T16:04:51.708Z,21.06
2023-02-17T16:06:53.046Z,21.21
2023-02-17T16:08:54.415Z,21.14
2023-02-17T16:10:56.116Z,21.13
2023-02-17T16:12:57.562Z,21.14
2023-02-17T16:14:59.056Z,21.07
2023-02-17T16:17:00.343Z,21.10
2023-02-17T16:19:01.697Z,21.12
2023-02-17T16:21:03.084Z,21.12
2023-02-17T16:23:04.419Z,21.15
2023-02-17T16:25:05.741Z,21.18
2023-02-17T16:27:09.478Z,21.19
2023-02-17T16:29:10.792Z,21.18
2023-02-17T16:31:12.329Z,21.19
2023-02-17T16:33:14.009Z,21.23
2023-02-17T16:35:15.411Z,21.23
2023-02-17T16:37:16.742Z,21.24
2023-02-17T16:39:18.092Z,21.24
2023-02-17T16:41:19.427Z,21.25
2023-02-17T16:43:20.741Z,21.26
2023-02-17T16:45:22.049Z,21.27
2023-02-17T16:47:24.058Z,21.28
2023-02-17T16:49:28.320Z,21.29
2023-02-17T16:51:29.714Z,21.29
2023-02-17T16:53:31.017Z,21.32
2023-02-17T16:55:32.355Z,21.30
2023-02-17T16:57:34.888Z,21.28
2023-02-17T16:59:36.180Z,21.15
2023-02-17T17:01:37.514Z,21.17
2023-02-17T17:03:39.078Z,21.09
2023-02-17T17:05:41.204Z,21.37
2023-02-17T17:07:45.216Z,21.94
2023-02-17T17:10:06.880Z,22.56
2023-02-17T17:12:07.855Z,22.83
2023-02-17T17:14:09.186Z,23.10
2023-02-17T17:16:10.595Z,22.89
2023-02-17T17:18:11.920Z,22.66
2023-02-17T17:20:13.576Z,22.55
2023-02-17T17:22:14.879Z,22.92
2023-02-17T17:24:16.172Z,22.65
2023-02-17T17:26:17.460Z,22.56
2023-02-17T17:28:18.807Z,22.51
2023-02-17T17:30:20.253Z,22.48
2023-02-17T17:32:21.699Z,22.46
2023-02-17T17:34:23.063Z,22.46
2023-02-17T17:36:25.367Z,22.41
2023-02-17T17:38:26.680Z,22.73
2023-02-17T17:40:28.042Z,22.15
2023-02-17T17:42:32.073Z,21.69
2023-02-17T17:44:33.413Z,21.98
2023-02-17T17:46:34.754Z,22.23
2023-02-17T17:48:36.096Z,22.32
2023-02-17T17:50:37.427Z,21.91
2023-02-17T17:52:38.764Z,21.53
2023-02-17T17:54:40.067Z,21.34
2023-02-17T17:56:42.926Z,21.28
2023-02-17T17:58:44.265Z,21.83
2023-02-17T18:00:45.636Z,22.26
2023-02-17T18:02:46.968Z,22.19
2023-02-17T18:04:54.027Z,22.26
2023-02-17T18:06:55.371Z,23.05
2023-02-17T18:08:56.697Z,23.21
2023-02-17T18:10:58.013Z,23.07
2023-02-17T18:12:59.299Z,22.24
2023-02-17T18:15:02.805Z,22.27
2023-02-17T18:17:04.149Z,23.03
2023-02-17T18:19:05.508Z,22.87
2023-02-17T18:21:06.814Z,23.26
2023-02-17T18:23:08.161Z,23.38
2023-02-17T18:25:09.460Z,23.28
2023-02-17T18:27:10.802Z,22.82
2023-02-17T18:29:12.196Z,22.55
2023-02-17T18:31:13.625Z,22.48
2023-02-17T18:33:15.056Z,22.50
2023-02-17T18:35:16.458Z,22.47
2023-02-17T18:37:20.688Z,22.47
2023-02-17T18:39:21.979Z,22.46
2023-02-17T18:43:25.440Z,22.46
2023-02-17T18:45:26.809Z,22.35
2023-02-17T18:47:28.128Z,22.28
2023-02-17T18:49:30.443Z,22.25
2023-02-17T18:51:31.778Z,22.23
2023-02-17T18:53:33.156Z,22.20
2023-02-17T18:55:35.512Z,22.36
2023-02-17T18:57:36.852Z,22.46
2023-02-17T18:59:38.163Z,22.25
2023-02-17T19:01:41.004Z,21.92
2023-02-17T19:03:42.399Z,21.70
2023-02-17T19:05:43.725Z,21.55
2023-02-17T19:07:48.104Z,21.47
2023-02-17T19:09:53.562Z,21.39
2023-02-17T19:11:58.076Z,21.34
2023-02-17T19:14:02.484Z,21.28
2023-02-17T19:16:03.823Z,21.19
2023-02-17T19:18:05.187Z,21.14
2023-02-17T19:20:06.494Z,20.97
2023-02-17T19:22:08.810Z,20.84
2023-02-17T19:24:10.721Z,21.01
2023-02-17T19:26:12.273Z,21.21
2023-02-17T19:28:19.356Z,21.28
2023-02-17T19:30:20.730Z,20.21
2023-02-17T19:32:22.063Z,19.87
2023-02-17T19:34:23.395Z,19.72
2023-02-17T19:36:24.872Z,20.46
2023-02-17T19:38:26.276Z,21.36
2023-02-17T19:40:27.616Z,21.96
2023-02-17T19:42:28.987Z,22.07
2023-02-17T19:44:30.555Z,22.22
2023-02-17T19:46:32.181Z,22.36
2023-02-17T19:48:34.428Z,22.38
2023-02-17T19:50:35.730Z,22.40
2023-02-17T19:52:37.035Z,22.50
2023-02-17T19:54:38.364Z,22.55
2023-02-17T19:56:39.693Z,22.60
2023-02-17T19:58:41.101Z,22.59
2023-02-17T20:00:42.469Z,22.64
2023-02-17T20:02:43.852Z,22.69
2023-02-17T20:04:45.151Z,22.48
2023-02-17T20:06:47.442Z,22.26
2023-02-17T20:08:51.059Z,22.52
2023-02-17T20:10:52.376Z,22.70
2023-02-17T20:12:53.680Z,22.79
2023-02-17T20:14:57.764Z,22.75
2023-02-17T20:17:00.668Z,22.76
2023-02-17T20:19:05.019Z,22.72
2023-02-17T20:21:06.512Z,22.78
2023-02-17T20:23:07.926Z,22.75
2023-02-17T20:25:09.283Z,22.74
2023-02-17T20:27:11.048Z,22.77
2023-02-17T20:29:12.479Z,22.74
2023-02-17T20:31:13.888Z,22.75
2023-02-17T20:33:15.252Z,22.65
2023-02-17T20:35:16.595Z,22.64
2023-02-17T20:37:17.896Z,22.55
2023-02-17T20:39:19.924Z,22.59
2023-02-17T20:41:21.308Z,22.55
2023-02-17T20:43:22.648Z,22.59
2023-02-17T20:45:23.952Z,22.61
2023-02-17T20:47:25.249Z,22.52
2023-02-17T20:49:26.593Z,22.54
2023-02-17T20:51:27.954Z,22.56
2023-02-17T20:53:29.291Z,22.47
2023-02-17T20:55:30.588Z,22.50
2023-02-17T20:57:32.046Z,22.41
2023-02-17T20:59:33.376Z,20.83
2023-02-17T21:01:35.007Z,19.89
2023-02-17T21:03:36.351Z,20.47
2023-02-17T21:05:37.690Z,21.17
2023-02-17T21:07:38.979Z,21.74
2023-02-17T21:09:40.313Z,21.99
2023-02-17T21:11:56.841Z,22.17
2023-02-17T21:13:58.133Z,22.27
2023-02-17T21:15:59.460Z,22.28
2023-02-17T21:18:00.869Z,22.33
2023-02-17T21:20:02.210Z,22.40
2023-02-17T21:22:03.562Z,22.44
2023-02-17T21:24:07.824Z,22.49
2023-02-17T21:26:12.367Z,22.51
2023-02-17T21:28:15.786Z,22.63
2023-02-17T21:30:18.528Z,22.68
2023-02-17T21:32:19.926Z,22.75
2023-02-17T21:34:21.338Z,22.78
2023-02-17T21:36:22.704Z,22.75
2023-02-17T21:38:24.052Z,22.78
2023-02-17T21:40:25.394Z,22.82
2023-02-17T21:42:46.004Z,22.73
2023-02-17T21:44:53.566Z,21.60
2023-02-17T21:46:54.939Z,21.76
2023-02-17T21:48:56.230Z,21.77
2023-02-17T21:50:57.532Z,21.74
2023-02-17T21:52:58.830Z,21.91
2023-02-17T21:55:01.180Z,22.17
2023-02-17T21:57:05.128Z,22.29
2023-02-17T21:59:06.449Z,22.33
2023-02-17T22:01:08.204Z,22.43
2023-02-17T22:03:09.565Z,22.38
2023-02-17T22:05:10.895Z,22.44
2023-02-17T22:07:12.173Z,22.37
2023-02-17T22:09:13.625Z,22.35
2023-02-17T22:11:15.054Z,22.35
2023-02-17T22:13:16.353Z,22.38
2023-02-17T22:15:17.649Z,22.39
2023-02-17T22:17:18.942Z,22.36
2023-02-17T22:19:20.253Z,22.33
2023-02-17T22:21:27.628Z,21.62
2023-02-17T22:23:28.961Z,22.31
2023-02-17T22:25:31.207Z,22.46
2023-02-17T22:27:32.539Z,22.40
2023-02-17T22:29:33.825Z,22.35
2023-02-17T22:31:35.315Z,21.60
2023-02-17T22:33:36.683Z,22.50
2023-02-17T22:35:37.988Z,22.48
2023-02-17T22:37:39.312Z,22.48
2023-02-17T22:39:40.634Z,22.45
2023-02-17T22:41:41.927Z,22.37
2023-02-17T22:43:43.224Z,22.35
2023-02-17T22:45:44.578Z,22.32
2023-02-17T22:47:45.887Z,22.30
2023-02-17T22:49:47.184Z,22.27
2023-02-17T22:51:48.495Z,22.29
2023-02-17T22:53:49.787Z,22.58
2023-02-17T22:55:51.083Z,22.60
2023-02-17T22:57:52.460Z,22.48
2023-02-17T22:59:53.755Z,22.45
2023-02-17T23:01:55.052Z,22.17
2023-02-17T23:03:56.360Z,21.87
2023-02-17T23:05:57.706Z,21.76
2023-02-17T23:07:58.991Z,21.98
2023-02-17T23:10:00.296Z,22.32
2023-02-17T23:12:02.149Z,22.37
2023-02-17T23:14:03.439Z,22.29
2023-02-17T23:16:04.788Z,22.32
2023-02-17T23:18:06.127Z,22.33
2023-02-17T23:20:07.452Z,22.37
2023-02-17T23:22:08.982Z,22.31
2023-02-17T23:24:10.318Z,22.31
2023-02-17T23:26:11.640Z,22.37
2023-02-17T23:28:12.988Z,22.36
2023-02-17T23:30:14.336Z,22.36
2023-02-17T23:32:15.683Z,22.42
2023-02-17T23:34:16.979Z,22.44
2023-02-17T23:36:18.328Z,22.54
2023-02-17T23:38:19.660Z,22.46
2023-02-17T23:40:20.991Z,22.59
2023-02-17T23:42:22.296Z,22.46
2023-02-17T23:44:26.427Z,22.39
2023-02-17T23:46:27.796Z,22.36
2023-02-17T23:48:29.211Z,22.40
2023-02-17T23:50:30.503Z,22.44
2023-02-17T23:52:31.809Z,20.52
2023-02-17T23:54:33.126Z,19.56
2023-02-17T23:56:34.480Z,19.69
2023-02-17T23:58:35.819Z,20.61
